sensor_id;sensor_type;location;lat;lon;timestamp;pressure;altitude;pressure_sealevel;temperature;humidity
25084;BME280;13075;55.682;37.564;2023-02-20T00:02:03;97412.00;;;0.75;100.00
25084;BME280;13075;55.682;37.564;2023-02-20T00:04:28;97420.75;;;0.60;100.00
25084;BME280;13075;55.682;37.564;2023-02-20T00:06:54;97408.06;;;0.64;100.00
25084;BME280;13075;55.682;37.564;2023-02-20T00:09:19;97419.88;;;0.75;100.00
25084;BME280;13075;55.682;37.564;2023-02-20T00:11:45;97418.94;;;0.61;100.00
25084;BME280;13075;55.682;37.564;2023-02-20T00:14:11;97416.69;;;0.37;100.00
25084;BME280;13075;55.682;37.564;2023-02-20T00:16:37;97422.81;;;0.65;100.00
25084;BME280;13075;55.682;37.564;2023-02-20T00:19:03;97410.78;;;0.77;100.00
25084;BME280;13075;55.682;37.564;2023-02-20T00:21:28;97413.53;;;0.90;100.00
25084;BME280;13075;55.682;37.564;2023-02-20T00:23:54;97416.59;;;0.73;100.00
25084;BME280;13075;55.682;37.564;2023-02-20T00:26:20;97416.06;;;0.77;100.00
25084;BME280;13075;55.682;37.564;2023-02-20T00:28:45;97418.63;;;0.49;100.00
25084;BME280;13075;55.682;37.564;2023-02-20T00:31:14;97415.88;;;0.36;100.00
25084;BME280;13075;55.682;37.564;2023-02-20T00:33:40;97419.41;;;0.65;100.00
25084;BME280;13075;55.682;37.564;2023-02-20T00:36:14;97425.28;;;0.24;100.00
25084;BME280;13075;55.682;37.564;2023-02-20T00:38:42;97417.63;;;0.50;100.00
25084;BME280;13075;55.682;37.564;2023-02-20T00:41:08;97407.31;;;0.49;100.00
25084;BME280;13075;55.682;37.564;2023-02-20T00:43:36;97409.53;;;0.73;100.00
25084;BME280;13075;55.682;37.564;2023-02-20T00:46:03;97408.88;;;0.65;100.00
25084;BME280;13075;55.682;37.564;2023-02-20T00:48:29;97411.69;;;0.42;100.00
25084;BME280;13075;55.682;37.564;2023-02-20T00:51:14;97403.69;;;0.78;100.00
25084;BME280;13075;55.682;37.564;2023-02-20T00:53:40;97400.53;;;0.89;100.00
25084;BME280;13075;55.682;37.564;2023-02-20T00:56:06;97412.81;;;0.54;100.00
25084;BME280;13075;55.682;37.564;2023-02-20T00:58:32;97413.47;;;0.84;100.00
25084;BME280;13075;55.682;37.564;2023-02-20T01:00:57;97396.88;;;1.17;100.00
25084;BME280;13075;55.682;37.564;2023-02-20T01:03:23;97401.44;;;1.02;100.00
25084;BME280;13075;55.682;37.564;2023-02-20T01:05:48;97406.78;;;0.60;100.00
25084;BME280;13075;55.682;37.564;2023-02-20T01:08:14;97392.19;;;0.57;100.00
25084;BME280;13075;55.682;37.564;2023-02-20T01:10:40;97400.09;;;0.57;100.00
25084;BME280;13075;55.682;37.564;2023-02-20T01:13:05;97397.41;;;0.72;100.00
25084;BME280;13075;55.682;37.564;2023-02-20T01:15:31;97397.56;;;0.98;100.00
25084;BME280;13075;55.682;37.564;2023-02-20T01:17:57;97395.50;;;0.94;100.00
25084;BME280;13075;55.682;37.564;2023-02-20T01:20:23;97407.31;;;0.98;100.00
25084;BME280;13075;55.682;37.564;2023-02-20T01:22:49;97401.25;;;1.04;100.00
25084;BME280;13075;55.682;37.564;2023-02-20T01:25:15;97398.44;;;0.78;100.00
25084;BME280;13075;55.682;37.564;2023-02-20T01:27:43;97403.41;;;0.94;100.00
25084;BME280;13075;55.682;37.564;2023-02-20T01:30:08;97412.28;;;0.65;100.00
25084;BME280;13075;55.682;37.564;2023-02-20T01:32:35;97415.84;;;0.79;100.00
25084;BME280;13075;55.682;37.564;2023-02-20T01:35:00;97411.38;;;1.00;100.00
25084;BME280;13075;55.682;37.564;2023-02-20T01:37:26;97417.00;;;1.25;100.00
25084;BME280;13075;55.682;37.564;2023-02-20T01:39:52;97410.78;;;0.77;100.00
25084;BME280;13075;55.682;37.564;2023-02-20T01:42:20;97413.91;;;0.38;100.00
25084;BME280;13075;55.682;37.564;2023-02-20T01:44:46;97412.38;;;0.72;100.00
25084;BME280;13075;55.682;37.564;2023-02-20T01:47:22;97418.81;;;0.69;100.00
25084;BME280;13075;55.682;37.564;2023-02-20T01:49:55;97423.34;;;0.33;100.00
25084;BME280;13075;55.682;37.564;2023-02-20T01:52:30;97424.13;;;0.54;100.00
25084;BME280;13075;55.682;37.564;2023-02-20T01:55:05;97428.16;;;0.50;100.00
25084;BME280;13075;55.682;37.564;2023-02-20T01:57:36;97423.81;;;0.22;100.00
25084;BME280;13075;55.682;37.564;2023-02-20T02:00:11;97419.22;;;0.73;100.00
25084;BME280;13075;55.682;37.564;2023-02-20T02:02:43;97419.78;;;0.61;100.00
25084;BME280;13075;55.682;37.564;2023-02-20T02:05:11;97415.59;;;0.74;100.00
25084;BME280;13075;55.682;37.564;2023-02-20T02:07:37;97413.78;;;1.02;100.00
25084;BME280;13075;55.682;37.564;2023-02-20T02:10:10;97424.44;;;0.66;100.00
25084;BME280;13075;55.682;37.564;2023-02-20T02:12:37;97430.47;;;0.18;100.00
25084;BME280;13075;55.682;37.564;2023-02-20T02:15:12;97430.84;;;0.15;100.00
25084;BME280;13075;55.682;37.564;2023-02-20T02:37:37;97444.13;;;0.28;100.00
25084;BME280;13075;55.682;37.564;2023-02-20T02:40:16;97445.16;;;0.76;100.00
25084;BME280;13075;55.682;37.564;2023-02-20T02:45:56;97440.44;;;1.20;100.00
25084;BME280;13075;55.682;37.564;2023-02-20T02:48:28;97456.47;;;0.48;100.00
25084;BME280;13075;55.682;37.564;2023-02-20T02:51:10;97449.44;;;0.77;100.00
25084;BME280;13075;55.682;37.564;2023-02-20T02:53:38;97451.00;;;0.71;100.00
25084;BME280;13075;55.682;37.564;2023-02-20T02:56:04;97453.47;;;0.51;100.00
25084;BME280;13075;55.682;37.564;2023-02-20T02:58:50;97454.50;;;0.57;100.00
25084;BME280;13075;55.682;37.564;2023-02-20T03:01:19;97446.19;;;0.75;100.00
25084;BME280;13075;55.682;37.564;2023-02-20T03:03:50;97450.56;;;0.68;100.00
25084;BME280;13075;55.682;37.564;2023-02-20T03:06:23;97452.06;;;0.77;100.00
25084;BME280;13075;55.682;37.564;2023-02-20T03:09:18;97437.81;;;0.92;100.00
25084;BME280;13075;55.682;37.564;2023-02-20T03:11:45;97444.63;;;0.59;100.00
25084;BME280;13075;55.682;37.564;2023-02-20T03:14:21;97450.88;;;0.79;100.00
25084;BME280;13075;55.682;37.564;2023-02-20T03:17:34;97455.28;;;0.51;100.00
25084;BME280;13075;55.682;37.564;2023-02-20T03:20:05;97452.69;;;0.57;100.00
25084;BME280;13075;55.682;37.564;2023-02-20T03:22:39;97457.97;;;0.00;100.00
25084;BME280;13075;55.682;37.564;2023-02-20T03:25:25;97457.81;;;0.44;100.00
25084;BME280;13075;55.682;37.564;2023-02-20T03:28:10;97457.00;;;0.65;100.00
25084;BME280;13075;55.682;37.564;2023-02-20T03:30:50;97444.47;;;0.88;100.00
25084;BME280;13075;55.682;37.564;2023-02-20T03:33:36;97452.94;;;0.20;100.00
25084;BME280;13075;55.682;37.564;2023-02-20T03:36:26;97452.44;;;0.10;100.00
25084;BME280;13075;55.682;37.564;2023-02-20T03:39:19;97456.50;;;0.13;100.00
25084;BME280;13075;55.682;37.564;2023-02-20T03:42:07;97460.66;;;-0.29;100.00
25084;BME280;13075;55.682;37.564;2023-02-20T03:45:00;97464.16;;;-0.07;100.00
25084;BME280;13075;55.682;37.564;2023-02-20T03:47:30;97457.44;;;-0.10;100.00
25084;BME280;13075;55.682;37.564;2023-02-20T03:49:59;97452.44;;;-0.05;100.00
25084;BME280;13075;55.682;37.564;2023-02-20T03:52:27;97467.06;;;0.19;100.00
25084;BME280;13075;55.682;37.564;2023-02-20T03:54:52;97466.38;;;0.11;100.00
25084;BME280;13075;55.682;37.564;2023-02-20T03:57:23;97465.19;;;-0.67;100.00
25084;BME280;13075;55.682;37.564;2023-02-20T03:59:56;97471.63;;;-0.40;100.00
25084;BME280;13075;55.682;37.564;2023-02-20T04:02:29;97462.34;;;-0.07;100.00
25084;BME280;13075;55.682;37.564;2023-02-20T04:05:00;97467.88;;;-0.31;100.00
25084;BME280;13075;55.682;37.564;2023-02-20T04:07:35;97471.63;;;0.11;100.00
25084;BME280;13075;55.682;37.564;2023-02-20T04:10:06;97473.00;;;0.07;100.00
25084;BME280;13075;55.682;37.564;2023-02-20T04:12:36;97470.53;;;-0.45;100.00
25084;BME280;13075;55.682;37.564;2023-02-20T04:15:04;97464.91;;;-0.72;100.00
25084;BME280;13075;55.682;37.564;2023-02-20T04:17:39;97470.72;;;-0.32;100.00
25084;BME280;13075;55.682;37.564;2023-02-20T04:20:06;97472.53;;;-0.18;100.00
25084;BME280;13075;55.682;37.564;2023-02-20T04:22:38;97466.53;;;-0.56;100.00
25084;BME280;13075;55.682;37.564;2023-02-20T04:27:53;97474.69;;;-0.22;100.00
25084;BME280;13075;55.682;37.564;2023-02-20T04:30:19;97478.63;;;0.04;100.00
25084;BME280;13075;55.682;37.564;2023-02-20T04:32:45;97478.72;;;-0.05;100.00
25084;BME280;13075;55.682;37.564;2023-02-20T04:35:16;97480.22;;;-0.75;100.00
25084;BME280;13075;55.682;37.564;2023-02-20T04:37:44;97468.50;;;-0.14;100.00
25084;BME280;13075;55.682;37.564;2023-02-20T04:40:12;97474.16;;;-0.32;100.00
25084;BME280;13075;55.682;37.564;2023-02-20T04:42:38;97479.88;;;-0.57;100.00
25084;BME280;13075;55.682;37.564;2023-02-20T04:45:03;97480.47;;;-0.85;100.00
25084;BME280;13075;55.682;37.564;2023-02-20T04:47:30;97469.53;;;-0.30;100.00
25084;BME280;13075;55.682;37.564;2023-02-20T04:49:56;97477.66;;;-0.25;100.00
25084;BME280;13075;55.682;37.564;2023-02-20T04:52:24;97467.59;;;-0.07;100.00
25084;BME280;13075;55.682;37.564;2023-02-20T04:54:50;97478.88;;;0.09;100.00
25084;BME280;13075;55.682;37.564;2023-02-20T04:57:18;97487.63;;;-0.20;100.00
25084;BME280;13075;55.682;37.564;2023-02-20T04:59:43;97475.16;;;0.18;100.00
25084;BME280;13075;55.682;37.564;2023-02-20T05:02:10;97482.72;;;-0.09;100.00
25084;BME280;13075;55.682;37.564;2023-02-20T05:04:36;97490.59;;;0.06;100.00
25084;BME280;13075;55.682;37.564;2023-02-20T05:07:02;97490.81;;;0.26;100.00
25084;BME280;13075;55.682;37.564;2023-02-20T05:09:28;97492.91;;;0.30;100.00
25084;BME280;13075;55.682;37.564;2023-02-20T05:11:53;97494.97;;;0.56;100.00
25084;BME280;13075;55.682;37.564;2023-02-20T05:14:20;97502.22;;;0.33;100.00
25084;BME280;13075;55.682;37.564;2023-02-20T05:16:46;97494.28;;;0.12;100.00
25084;BME280;13075;55.682;37.564;2023-02-20T05:19:13;97495.59;;;-0.14;100.00
25084;BME280;13075;55.682;37.564;2023-02-20T05:21:43;97498.81;;;0.03;100.00
25084;BME280;13075;55.682;37.564;2023-02-20T05:24:28;97502.63;;;0.00;100.00
25084;BME280;13075;55.682;37.564;2023-02-20T05:26:55;97495.72;;;0.50;100.00
25084;BME280;13075;55.682;37.564;2023-02-20T05:29:21;97484.25;;;0.00;100.00
25084;BME280;13075;55.682;37.564;2023-02-20T05:31:46;97505.03;;;-0.48;100.00
25084;BME280;13075;55.682;37.564;2023-02-20T05:34:12;97493.97;;;-0.29;100.00
25084;BME280;13075;55.682;37.564;2023-02-20T05:36:37;97489.88;;;-0.17;100.00
25084;BME280;13075;55.682;37.564;2023-02-20T05:39:03;97498.66;;;0.05;100.00
25084;BME280;13075;55.682;37.564;2023-02-20T05:41:30;97487.72;;;-0.28;100.00
25084;BME280;13075;55.682;37.564;2023-02-20T05:43:55;97503.59;;;-0.36;100.00
25084;BME280;13075;55.682;37.564;2023-02-20T05:46:23;97501.66;;;-0.72;100.00
25084;BME280;13075;55.682;37.564;2023-02-20T05:48:49;97504.34;;;0.08;100.00
25084;BME280;13075;55.682;37.564;2023-02-20T05:51:27;97500.31;;;-0.09;100.00
25084;BME280;13075;55.682;37.564;2023-02-20T05:53:53;97495.44;;;-0.56;100.00
25084;BME280;13075;55.682;37.564;2023-02-20T05:56:19;97513.41;;;0.20;100.00
25084;BME280;13075;55.682;37.564;2023-02-20T05:58:45;97503.38;;;0.66;100.00
25084;BME280;13075;55.682;37.564;2023-02-20T06:01:22;97509.97;;;0.20;100.00
25084;BME280;13075;55.682;37.564;2023-02-20T06:03:48;97510.59;;;0.22;100.00
25084;BME280;13075;55.682;37.564;2023-02-20T06:06:14;97509.06;;;-0.02;100.00
25084;BME280;13075;55.682;37.564;2023-02-20T06:08:40;97511.09;;;-0.19;100.00
25084;BME280;13075;55.682;37.564;2023-02-20T06:11:06;97524.69;;;0.35;100.00
25084;BME280;13075;55.682;37.564;2023-02-20T06:13:31;97526.03;;;0.10;100.00
25084;BME280;13075;55.682;37.564;2023-02-20T06:15:57;97520.53;;;0.41;100.00
25084;BME280;13075;55.682;37.564;2023-02-20T06:18:23;97521.31;;;0.41;100.00
25084;BME280;13075;55.682;37.564;2023-02-20T06:20:48;97523.97;;;-0.24;100.00
25084;BME280;13075;55.682;37.564;2023-02-20T06:23:14;97524.69;;;0.35;100.00
25084;BME280;13075;55.682;37.564;2023-02-20T06:25:39;97532.75;;;0.34;100.00
25084;BME280;13075;55.682;37.564;2023-02-20T06:28:05;97535.44;;;0.97;100.00
25084;BME280;13075;55.682;37.564;2023-02-20T06:30:31;97532.34;;;0.16;100.00
25084;BME280;13075;55.682;37.564;2023-02-20T06:32:57;97538.72;;;0.07;100.00
25084;BME280;13075;55.682;37.564;2023-02-20T06:35:22;97524.94;;;0.76;100.00
25084;BME280;13075;55.682;37.564;2023-02-20T06:37:48;97536.56;;;0.31;100.00
25084;BME280;13075;55.682;37.564;2023-02-20T06:40:13;97549.72;;;0.31;100.00
25084;BME280;13075;55.682;37.564;2023-02-20T06:42:39;97530.53;;;0.52;100.00
25084;BME280;13075;55.682;37.564;2023-02-20T06:45:05;97532.63;;;0.06;100.00
25084;BME280;13075;55.682;37.564;2023-02-20T06:47:30;97537.75;;;0.29;100.00
25084;BME280;13075;55.682;37.564;2023-02-20T06:49:56;97541.66;;;0.33;100.00
25084;BME280;13075;55.682;37.564;2023-02-20T06:52:22;97536.13;;;0.63;100.00
25084;BME280;13075;55.682;37.564;2023-02-20T06:54:47;97532.50;;;1.07;100.00
25084;BME280;13075;55.682;37.564;2023-02-20T06:57:13;97538.25;;;1.17;100.00
25084;BME280;13075;55.682;37.564;2023-02-20T06:59:39;97532.34;;;1.36;100.00
25084;BME280;13075;55.682;37.564;2023-02-20T07:02:10;97541.69;;;1.39;100.00
25084;BME280;13075;55.682;37.564;2023-02-20T07:04:36;97542.09;;;0.72;100.00
25084;BME280;13075;55.682;37.564;2023-02-20T07:07:02;97546.91;;;0.69;100.00
25084;BME280;13075;55.682;37.564;2023-02-20T07:09:27;97535.31;;;1.05;100.00
25084;BME280;13075;55.682;37.564;2023-02-20T07:11:53;97536.66;;;1.44;100.00
25084;BME280;13075;55.682;37.564;2023-02-20T07:14:20;97528.75;;;1.44;100.00
25084;BME280;13075;55.682;37.564;2023-02-20T07:16:46;97533.19;;;1.43;100.00
25084;BME280;13075;55.682;37.564;2023-02-20T07:19:12;97532.47;;;1.90;100.00
25084;BME280;13075;55.682;37.564;2023-02-20T07:21:37;97538.41;;;1.64;100.00
25084;BME280;13075;55.682;37.564;2023-02-20T07:24:03;97542.97;;;1.49;100.00
25084;BME280;13075;55.682;37.564;2023-02-20T07:26:30;97548.44;;;1.26;100.00
25084;BME280;13075;55.682;37.564;2023-02-20T07:28:56;97548.66;;;1.04;100.00
25084;BME280;13075;55.682;37.564;2023-02-20T07:31:26;97545.78;;;1.48;100.00
25084;BME280;13075;55.682;37.564;2023-02-20T07:33:52;97548.25;;;1.49;100.00
25084;BME280;13075;55.682;37.564;2023-02-20T07:36:17;97549.47;;;1.53;100.00
25084;BME280;13075;55.682;37.564;2023-02-20T07:38:55;97553.09;;;1.24;100.00
25084;BME280;13075;55.682;37.564;2023-02-20T07:41:22;97544.78;;;1.49;100.00
25084;BME280;13075;55.682;37.564;2023-02-20T07:43:47;97547.28;;;1.57;100.00
25084;BME280;13075;55.682;37.564;2023-02-20T07:46:13;97542.75;;;1.78;100.00
25084;BME280;13075;55.682;37.564;2023-02-20T07:48:39;97542.50;;;1.73;100.00
25084;BME280;13075;55.682;37.564;2023-02-20T07:51:04;97547.28;;;1.57;100.00
25084;BME280;13075;55.682;37.564;2023-02-20T07:53:30;97559.19;;;1.53;100.00
25084;BME280;13075;55.682;37.564;2023-02-20T07:55:55;97549.00;;;2.12;100.00
25084;BME280;13075;55.682;37.564;2023-02-20T07:58:21;97554.34;;;1.84;100.00
25084;BME280;13075;55.682;37.564;2023-02-20T08:00:48;97566.47;;;1.51;100.00
25084;BME280;13075;55.682;37.564;2023-02-20T08:03:16;97565.13;;;1.89;100.00
25084;BME280;13075;55.682;37.564;2023-02-20T08:05:42;97554.09;;;2.13;100.00
25084;BME280;13075;55.682;37.564;2023-02-20T08:08:07;97562.69;;;2.28;100.00
25084;BME280;13075;55.682;37.564;2023-02-20T08:10:33;97566.81;;;2.37;100.00
25084;BME280;13075;55.682;37.564;2023-02-20T08:12:58;97567.97;;;1.87;100.00
25084;BME280;13075;55.682;37.564;2023-02-20T08:15:24;97569.66;;;1.67;100.00
25084;BME280;13075;55.682;37.564;2023-02-20T08:17:50;97576.28;;;1.36;100.00
25084;BME280;13075;55.682;37.564;2023-02-20T08:20:17;97567.19;;;1.66;100.00
25084;BME280;13075;55.682;37.564;2023-02-20T08:22:44;97567.88;;;1.74;100.00
25084;BME280;13075;55.682;37.564;2023-02-20T08:25:11;97574.75;;;2.10;100.00
25084;BME280;13075;55.682;37.564;2023-02-20T08:27:41;97577.84;;;1.51;100.00
25084;BME280;13075;55.682;37.564;2023-02-20T08:30:11;97580.75;;;1.35;100.00
25084;BME280;13075;55.682;37.564;2023-02-20T08:32:37;97567.63;;;1.69;100.00
25084;BME280;13075;55.682;37.564;2023-02-20T08:35:03;97572.38;;;1.80;100.00
25084;BME280;13075;55.682;37.564;2023-02-20T08:37:29;97576.75;;;1.67;100.00
25084;BME280;13075;55.682;37.564;2023-02-20T08:39:54;97577.75;;;2.00;100.00
25084;BME280;13075;55.682;37.564;2023-02-20T08:42:20;97588.94;;;1.74;100.00
25084;BME280;13075;55.682;37.564;2023-02-20T08:44:46;97597.13;;;2.14;100.00
25084;BME280;13075;55.682;37.564;2023-02-20T08:47:11;97597.41;;;1.98;100.00
25084;BME280;13075;55.682;37.564;2023-02-20T08:49:37;97588.69;;;2.31;100.00
25084;BME280;13075;55.682;37.564;2023-02-20T08:52:02;97583.09;;;2.54;100.00
25084;BME280;13075;55.682;37.564;2023-02-20T08:54:30;97587.94;;;2.44;100.00
25084;BME280;13075;55.682;37.564;2023-02-20T08:56:56;97580.28;;;2.62;100.00
25084;BME280;13075;55.682;37.564;2023-02-20T08:59:21;97582.00;;;2.35;100.00
25084;BME280;13075;55.682;37.564;2023-02-20T09:01:47;97575.50;;;2.31;100.00
25084;BME280;13075;55.682;37.564;2023-02-20T09:04:13;97575.56;;;2.51;100.00
25084;BME280;13075;55.682;37.564;2023-02-20T09:06:41;97569.06;;;2.47;100.00
25084;BME280;13075;55.682;37.564;2023-02-20T09:09:06;97570.38;;;2.77;100.00
25084;BME280;13075;55.682;37.564;2023-02-20T09:11:32;97573.91;;;3.17;100.00
25084;BME280;13075;55.682;37.564;2023-02-20T09:13:57;97565.19;;;3.17;100.00
25084;BME280;13075;55.682;37.564;2023-02-20T09:16:23;97573.44;;;2.81;100.00
25084;BME280;13075;55.682;37.564;2023-02-20T09:18:49;97574.56;;;2.59;100.00
25084;BME280;13075;55.682;37.564;2023-02-20T09:21:18;97581.66;;;2.51;99.09
25084;BME280;13075;55.682;37.564;2023-02-20T09:23:44;97575.81;;;2.63;100.00
25084;BME280;13075;55.682;37.564;2023-02-20T09:26:10;97592.25;;;2.17;100.00
25084;BME280;13075;55.682;37.564;2023-02-20T09:28:36;97586.97;;;2.58;100.00
25084;BME280;13075;55.682;37.564;2023-02-20T09:31:02;97588.69;;;2.92;100.00
25084;BME280;13075;55.682;37.564;2023-02-20T09:33:28;97588.94;;;3.23;100.00
25084;BME280;13075;55.682;37.564;2023-02-20T09:35:54;97594.03;;;3.25;100.00
25084;BME280;13075;55.682;37.564;2023-02-20T09:38:20;97589.19;;;3.35;100.00
25084;BME280;13075;55.682;37.564;2023-02-20T09:40:53;97582.81;;;2.96;100.00
25084;BME280;13075;55.682;37.564;2023-02-20T09:51:24;97577.81;;;2.54;100.00
25084;BME280;13075;55.682;37.564;2023-02-20T09:54:05;97576.44;;;2.71;100.00
25084;BME280;13075;55.682;37.564;2023-02-20T09:56:35;97575.91;;;2.89;100.00
25084;BME280;13075;55.682;37.564;2023-02-20T09:59:06;97575.78;;;2.49;100.00
25084;BME280;13075;55.682;37.564;2023-02-20T10:01:38;97579.72;;;2.73;100.00
25084;BME280;13075;55.682;37.564;2023-02-20T10:04:14;97583.63;;;2.36;100.00
25084;BME280;13075;55.682;37.564;2023-02-20T10:06:43;97578.84;;;2.60;100.00
25084;BME280;13075;55.682;37.564;2023-02-20T10:09:12;97577.03;;;2.67;100.00
25084;BME280;13075;55.682;37.564;2023-02-20T10:14:47;97576.09;;;2.87;95.61
25084;BME280;13075;55.682;37.564;2023-02-20T10:17:38;97576.53;;;3.10;96.65
25084;BME280;13075;55.682;37.564;2023-02-20T10:20:26;97571.41;;;2.89;99.39
25084;BME280;13075;55.682;37.564;2023-02-20T10:25:50;97581.31;;;2.20;91.28
25084;BME280;13075;55.682;37.564;2023-02-20T10:28:18;97570.78;;;2.74;98.39
25084;BME280;13075;55.682;37.564;2023-02-20T10:30:57;97576.31;;;2.92;100.00
25084;BME280;13075;55.682;37.564;2023-02-20T10:38:29;97574.84;;;2.70;100.00
25084;BME280;13075;55.682;37.564;2023-02-20T10:48:31;97569.19;;;2.86;99.42
25084;BME280;13075;55.682;37.564;2023-02-20T10:53:48;97573.88;;;2.91;93.32
25084;BME280;13075;55.682;37.564;2023-02-20T10:56:37;97569.16;;;2.80;96.38
25084;BME280;13075;55.682;37.564;2023-02-20T10:59:18;97570.63;;;2.95;100.00
25084;BME280;13075;55.682;37.564;2023-02-20T11:01:50;97567.53;;;2.79;98.79
25084;BME280;13075;55.682;37.564;2023-02-20T11:04:31;97573.91;;;3.04;100.00
25084;BME280;13075;55.682;37.564;2023-02-20T11:07:02;97570.66;;;3.28;100.00
25084;BME280;13075;55.682;37.564;2023-02-20T11:09:29;97569.25;;;3.39;100.00
25084;BME280;13075;55.682;37.564;2023-02-20T11:11:55;97563.75;;;3.21;98.96
25084;BME280;13075;55.682;37.564;2023-02-20T11:14:39;97567.00;;;3.16;97.11
25084;BME280;13075;55.682;37.564;2023-02-20T11:17:09;97566.59;;;3.06;93.01
25084;BME280;13075;55.682;37.564;2023-02-20T11:19:46;97570.38;;;2.77;88.98
25084;BME280;13075;55.682;37.564;2023-02-20T11:22:12;97560.06;;;2.89;100.00
25084;BME280;13075;55.682;37.564;2023-02-20T11:24:39;97553.41;;;3.32;99.01
25084;BME280;13075;55.682;37.564;2023-02-20T11:27:21;97568.56;;;2.24;92.47
25084;BME280;13075;55.682;37.564;2023-02-20T11:30:00;97568.31;;;2.60;100.00
25084;BME280;13075;55.682;37.564;2023-02-20T11:32:37;97568.78;;;2.83;97.88
25084;BME280;13075;55.682;37.564;2023-02-20T11:37:42;97564.56;;;3.01;92.93
25084;BME280;13075;55.682;37.564;2023-02-20T11:40:24;97575.09;;;2.95;100.00
25084;BME280;13075;55.682;37.564;2023-02-20T11:42:51;97572.28;;;3.16;100.00
25084;BME280;13075;55.682;37.564;2023-02-20T11:45:25;97583.06;;;3.14;100.00
25084;BME280;13075;55.682;37.564;2023-02-20T11:48:24;97583.78;;;2.76;97.94
25084;BME280;13075;55.682;37.564;2023-02-20T11:50:51;97587.47;;;2.94;99.36
25084;BME280;13075;55.682;37.564;2023-02-20T11:53:27;97592.72;;;2.75;95.87
25084;BME280;13075;55.682;37.564;2023-02-20T11:56:14;97587.28;;;3.02;97.06
25084;BME280;13075;55.682;37.564;2023-02-20T11:58:41;97593.00;;;3.12;95.51
25084;BME280;13075;55.682;37.564;2023-02-20T12:01:29;97586.28;;;2.43;93.80
25084;BME280;13075;55.682;37.564;2023-02-20T12:03:56;97595.31;;;2.21;97.49
25084;BME280;13075;55.682;37.564;2023-02-20T12:08:58;97595.63;;;2.05;95.94
25084;BME280;13075;55.682;37.564;2023-02-20T12:11:26;97595.53;;;1.92;98.56
25084;BME280;13075;55.682;37.564;2023-02-20T12:13:55;97580.66;;;2.12;100.00
25084;BME280;13075;55.682;37.564;2023-02-20T12:27:55;97594.72;;;1.91;92.49
25084;BME280;13075;55.682;37.564;2023-02-20T12:54:59;97606.16;;;1.98;100.00
25084;BME280;13075;55.682;37.564;2023-02-20T13:00:49;97602.66;;;2.73;100.00
25084;BME280;13075;55.682;37.564;2023-02-20T13:03:13;97603.66;;;2.65;100.00
25084;BME280;13075;55.682;37.564;2023-02-20T13:05:43;97593.88;;;2.59;100.00
25084;BME280;13075;55.682;37.564;2023-02-20T13:08:34;97596.25;;;2.07;90.91
25084;BME280;13075;55.682;37.564;2023-02-20T13:11:08;97590.88;;;2.28;91.89
25084;BME280;13075;55.682;37.564;2023-02-20T13:19:19;97589.63;;;1.83;90.47
25084;BME280;13075;55.682;37.564;2023-02-20T13:21:46;97595.91;;;1.82;98.91
25084;BME280;13075;55.682;37.564;2023-02-20T13:24:33;97597.63;;;1.68;94.92
25084;BME280;13075;55.682;37.564;2023-02-20T13:27:02;97601.69;;;1.22;96.68
25084;BME280;13075;55.682;37.564;2023-02-20T13:29:39;97596.78;;;1.40;99.92
25084;BME280;13075;55.682;37.564;2023-02-20T13:32:26;97604.44;;;1.14;96.70
25084;BME280;13075;55.682;37.564;2023-02-20T13:34:53;97602.00;;;1.12;100.00
25084;BME280;13075;55.682;37.564;2023-02-20T13:40:38;97591.94;;;1.16;100.00
25084;BME280;13075;55.682;37.564;2023-02-20T13:58:44;97607.19;;;1.06;100.00
25084;BME280;13075;55.682;37.564;2023-02-20T14:01:11;97615.06;;;1.20;100.00
25084;BME280;13075;55.682;37.564;2023-02-20T14:03:36;97606.47;;;1.12;100.00
25084;BME280;13075;55.682;37.564;2023-02-20T14:08:38;97605.13;;;1.01;100.00
25084;BME280;13075;55.682;37.564;2023-02-20T14:11:31;97610.22;;;1.03;100.00
25084;BME280;13075;55.682;37.564;2023-02-20T14:13:56;97609.19;;;0.83;100.00
25084;BME280;13075;55.682;37.564;2023-02-20T14:16:34;97608.34;;;0.97;100.00
25084;BME280;13075;55.682;37.564;2023-02-20T14:19:21;97603.06;;;0.97;100.00
25084;BME280;13075;55.682;37.564;2023-02-20T14:21:48;97616.09;;;0.84;100.00
25084;BME280;13075;55.682;37.564;2023-02-20T14:26:46;97611.56;;;1.13;100.00
25084;BME280;13075;55.682;37.564;2023-02-20T14:31:53;97619.97;;;0.67;100.00
25084;BME280;13075;55.682;37.564;2023-02-20T14:42:29;97611.72;;;1.54;100.00
25084;BME280;13075;55.682;37.564;2023-02-20T14:45:00;97616.41;;;1.38;100.00
25084;BME280;13075;55.682;37.564;2023-02-20T14:47:27;97627.06;;;1.51;100.00
25084;BME280;13075;55.682;37.564;2023-02-20T14:49:53;97621.31;;;1.19;100.00
25084;BME280;13075;55.682;37.564;2023-02-20T14:52:31;97623.81;;;1.06;100.00
25084;BME280;13075;55.682;37.564;2023-02-20T14:55:02;97622.56;;;1.45;100.00
25084;BME280;13075;55.682;37.564;2023-02-20T14:57:29;97624.03;;;1.26;100.00
25084;BME280;13075;55.682;37.564;2023-02-20T15:00:22;97630.97;;;1.55;100.00
25084;BME280;13075;55.682;37.564;2023-02-20T15:02:51;97630.59;;;1.37;100.00
25084;BME280;13075;55.682;37.564;2023-02-20T15:05:31;97629.59;;;1.16;100.00
25084;BME280;13075;55.682;37.564;2023-02-20T15:08:22;97629.41;;;1.18;100.00
25084;BME280;13075;55.682;37.564;2023-02-20T15:10:53;97628.34;;;1.34;100.00
25084;BME280;13075;55.682;37.564;2023-02-20T15:13:27;97625.31;;;1.58;100.00
25084;BME280;13075;55.682;37.564;2023-02-20T15:16:31;97625.38;;;1.43;100.00
25084;BME280;13075;55.682;37.564;2023-02-20T15:19:00;97629.84;;;1.43;100.00
25084;BME280;13075;55.682;37.564;2023-02-20T15:21:36;97634.00;;;1.31;100.00
25084;BME280;13075;55.682;37.564;2023-02-20T15:26:50;97625.06;;;1.53;100.00
25084;BME280;13075;55.682;37.564;2023-02-20T15:29:27;97617.03;;;1.40;100.00